Time;durP1;ratioP1;P1;durP2;ratioP2;P2;SDS_P1;SDS_P2;PMS_P1;PMS_P2;Temp;Humidity;BMP_temperature;BMP_pressure;BME280_temperature;BME280_humidity;BME280_pressure;Samples;Min_cycle;Max_cycle;Signal;HPM_P1;HPM_P2
2021/01/20 00:01:29;;;;;;;1.07;0.87;;;;;;;;;;5056368;28;20739;-76
2021/01/20 00:03:55;;;;;;;1.88;1.27;;;;;;;;;;5056098;28;20981;-78
2021/01/20 00:06:21;;;;;;;1.33;0.80;;;;;;;;;;5056435;28;20181;-78
2021/01/20 00:08:47;;;;;;;0.90;0.90;;;;;;;;;;5056140;28;20170;-77
2021/01/20 00:11:13;;;;;;;0.60;0.60;;;;;;;;;;5056320;28;20443;-77
2021/01/20 00:13:39;;;;;;;1.17;0.80;;;;;;;;;;5055976;28;20470;-78
2021/01/20 00:16:05;;;;;;;3.03;1.07;;;;;;;;;;5056467;28;20780;-77
2021/01/20 00:18:31;;;;;;;2.00;1.45;;;;;;;;;;5056231;28;20424;-77
2021/01/20 00:24:00;;;;;;;1.58;1.25;;;;;;;;;;5055918;28;20414;-76
2021/01/20 00:26:26;;;;;;;1.52;1.02;;;;;;;;;;5055766;28;20170;-77
2021/01/20 00:28:52;;;;;;;1.27;1.20;;;;;;;;;;5055880;28;20183;-78
2021/01/20 00:31:18;;;;;;;1.40;1.20;;;;;;;;;;5055843;28;20886;-78
2021/01/20 00:33:44;;;;;;;1.30;1.20;;;;;;;;;;5055912;28;20472;-77
2021/01/20 00:39:14;;;;;;;1.48;1.10;;;;;;;;;;5055658;28;20253;-76
2021/01/20 00:41:40;;;;;;;2.03;1.35;;;;;;;;;;5055704;28;20216;-77
2021/01/20 00:44:06;;;;;;;1.43;1.07;;;;;;;;;;5055544;28;20177;-79
2021/01/20 00:46:32;;;;;;;1.00;0.90;;;;;;;;;;5055504;28;20450;-76
2021/01/20 00:48:57;;;;;;;1.37;1.20;;;;;;;;;;5055487;28;20443;-78
2021/01/20 00:54:27;;;;;;;1.38;1.00;;;;;;;;;;5055213;28;20434;-77
2021/01/20 00:56:53;;;;;;;1.30;1.20;;;;;;;;;;5054989;28;20177;-76
2021/01/20 00:59:19;;;;;;;2.50;1.20;;;;;;;;;;5055269;28;20903;-77
2021/01/20 01:01:45;;;;;;;1.63;1.20;;;;;;;;;;5055147;28;20491;-76
2021/01/20 01:04:11;;;;;;;3.30;1.67;;;;;;;;;;5054794;28;20489;-77
2021/01/20 01:06:38;;;;;;;1.33;1.00;;;;;;;;;;5054984;28;20408;-76
2021/01/20 01:09:05;;;;;;;1.60;1.30;;;;;;;;;;5055295;28;20420;-78
2021/01/20 01:11:32;;;;;;;1.27;1.17;;;;;;;;;;5054890;28;20226;-78
2021/01/20 01:13:58;;;;;;;0.90;0.90;;;;;;;;;;5054974;28;20208;-77
2021/01/20 01:16:24;;;;;;;1.52;1.23;;;;;;;;;;5055027;28;20674;-77
2021/01/20 01:18:50;;;;;;;1.20;1.10;;;;;;;;;;5055303;28;20177;-78
2021/01/20 01:24:19;;;;;;;0.80;0.80;;;;;;;;;;5054925;28;20422;-75
2021/01/20 01:26:45;;;;;;;1.33;1.10;;;;;;;;;;5055036;28;20165;-77
2021/01/20 01:29:11;;;;;;;1.70;1.10;;;;;;;;;;5054866;28;20894;-76
2021/01/20 01:31:37;;;;;;;2.20;1.70;;;;;;;;;;5054731;28;20446;-77
2021/01/20 01:34:03;;;;;;;1.33;1.23;;;;;;;;;;5054541;28;20467;-77
2021/01/20 01:39:34;;;;;;;1.20;1.02;;;;;;;;;;5054489;28;20913;-77
2021/01/20 01:42:01;;;;;;;2.13;1.30;;;;;;;;;;5054346;28;20168;-78
2021/01/20 01:44:27;;;;;;;1.77;1.52;;;;;;;;;;5054396;28;20177;-78
2021/01/20 01:46:53;;;;;;;1.35;1.05;;;;;;;;;;5054247;28;20266;-78
2021/01/20 01:49:19;;;;;;;1.20;1.10;;;;;;;;;;5054385;28;20558;-76
2021/01/20 01:54:51;;;;;;;1.45;1.13;;;;;;;;;;5054218;28;20195;-77
2021/01/20 01:57:17;;;;;;;1.63;0.85;;;;;;;;;;5054173;28;20173;-77
2021/01/20 01:59:43;;;;;;;1.27;1.02;;;;;;;;;;5054289;28;20172;-77
2021/01/20 02:02:09;;;;;;;1.03;0.83;;;;;;;;;;5054285;28;20244;-77
2021/01/20 02:04:35;;;;;;;1.27;1.10;;;;;;;;;;5054067;28;20563;-78
2021/01/20 02:07:01;;;;;;;3.40;1.27;;;;;;;;;;5053861;28;20442;-76
2021/01/20 02:09:28;;;;;;;3.00;1.20;;;;;;;;;;5053870;28;20946;-76
2021/01/20 02:11:54;;;;;;;2.28;1.10;;;;;;;;;;5053777;28;20469;-77
2021/01/20 02:14:38;;;;;;;1.30;1.20;;;;;;;;;;5053521;28;20221;-78
2021/01/20 02:17:16;;;;;;;2.78;1.17;;;;;;;;;;5053864;28;20409;-76
2021/01/20 02:20:01;;;;;;;1.13;1.00;;;;;;;;;;5053701;28;20642;-78
2021/01/20 02:22:28;;;;;;;1.63;1.52;;;;;;;;;;5053792;28;20177;-76
2021/01/20 02:25:01;;;;;;;1.20;0.90;;;;;;;;;;5053466;28;20177;-78
2021/01/20 02:27:40;;;;;;;1.15;1.05;;;;;;;;;;5035873;28;20180;-76
2021/01/20 02:30:08;;;;;;;2.60;1.65;;;;;;;;;;5053579;28;20227;-77
2021/01/20 02:32:36;;;;;;;0.95;0.95;;;;;;;;;;5053613;28;20206;-77
2021/01/20 02:35:02;;;;;;;1.55;1.20;;;;;;;;;;5053617;28;20168;-76
2021/01/20 02:37:29;;;;;;;1.65;1.50;;;;;;;;;;5053409;28;20181;-78
2021/01/20 02:39:55;;;;;;;1.67;1.40;;;;;;;;;;5053084;28;20173;-76
2021/01/20 02:42:21;;;;;;;2.35;1.45;;;;;;;;;;5053112;28;20521;-77
2021/01/20 02:44:47;;;;;;;1.43;1.10;;;;;;;;;;5053240;28;20169;-77
2021/01/20 02:47:13;;;;;;;2.57;1.10;;;;;;;;;;5053251;28;20468;-77
2021/01/20 02:49:39;;;;;;;1.53;0.90;;;;;;;;;;5053109;28;20415;-77
2021/01/20 02:55:10;;;;;;;1.52;1.15;;;;;;;;;;5053308;28;20247;-75
2021/01/20 02:57:37;;;;;;;1.23;0.85;;;;;;;;;;5053052;28;20168;-77
2021/01/20 03:00:04;;;;;;;1.50;1.15;;;;;;;;;;5053161;28;20237;-77
2021/01/20 03:02:31;;;;;;;1.45;0.90;;;;;;;;;;5052673;28;20226;-77
2021/01/20 03:04:57;;;;;;;0.82;0.82;;;;;;;;;;5052327;28;20174;-76
2021/01/20 03:07:24;;;;;;;1.80;1.13;;;;;;;;;;5034735;28;20626;-77
2021/01/20 03:09:50;;;;;;;1.08;0.80;;;;;;;;;;5052997;28;20172;-77
2021/01/20 03:12:16;;;;;;;1.50;0.93;;;;;;;;;;5052798;28;20167;-78
2021/01/20 03:14:43;;;;;;;4.53;1.23;;;;;;;;;;5053070;28;20252;-77
2021/01/20 03:17:10;;;;;;;1.50;0.80;;;;;;;;;;5052845;28;20810;-78
2021/01/20 03:19:36;;;;;;;1.67;1.02;;;;;;;;;;5052768;28;20271;-77
2021/01/20 03:25:06;;;;;;;2.63;1.10;;;;;;;;;;5053129;28;20240;-77
2021/01/20 03:27:32;;;;;;;1.73;0.80;;;;;;;;;;5052861;28;20179;-77
2021/01/20 03:29:58;;;;;;;0.80;0.80;;;;;;;;;;5052803;28;20631;-77
2021/01/20 03:32:23;;;;;;;2.67;0.60;;;;;;;;;;5052677;28;20283;-78
2021/01/20 03:34:50;;;;;;;1.30;0.97;;;;;;;;;;5052721;28;20455;-78
2021/01/20 03:40:20;;;;;;;0.80;0.80;;;;;;;;;;5052726;28;20165;-77
2021/01/20 03:42:46;;;;;;;1.80;0.90;;;;;;;;;;5052600;28;20165;-78
2021/01/20 03:45:12;;;;;;;1.60;1.23;;;;;;;;;;5052706;28;20464;-77
2021/01/20 03:47:38;;;;;;;1.25;0.90;;;;;;;;;;5052643;28;20793;-77
2021/01/20 03:55:52;;;;;;;2.50;1.45;;;;;;;;;;5052695;28;20256;-77
2021/01/20 03:58:18;;;;;;;1.33;1.10;;;;;;;;;;5052484;28;20204;-77
2021/01/20 04:00:44;;;;;;;1.10;0.90;;;;;;;;;;5052695;28;20419;-77
2021/01/20 04:03:10;;;;;;;1.17;1.05;;;;;;;;;;5052479;28;20467;-78
2021/01/20 04:05:36;;;;;;;1.57;0.87;;;;;;;;;;5052887;28;20177;-77
2021/01/20 04:08:02;;;;;;;1.50;1.10;;;;;;;;;;5052914;28;20977;-77
2021/01/20 04:10:28;;;;;;;1.40;0.95;;;;;;;;;;5052488;28;20494;-76
2021/01/20 04:12:54;;;;;;;1.20;1.10;;;;;;;;;;5052447;28;20284;-77
2021/01/20 04:15:20;;;;;;;2.15;0.88;;;;;;;;;;5054439;28;20417;-78
2021/01/20 04:17:46;;;;;;;2.47;0.67;;;;;;;;;;5056367;28;20712;-77
2021/01/20 04:20:13;;;;;;;2.57;1.00;;;;;;;;;;5056352;28;20421;-77
2021/01/20 04:25:42;;;;;;;3.00;1.00;;;;;;;;;;5056034;28;20176;-78
2021/01/20 04:28:08;;;;;;;0.97;0.90;;;;;;;;;;5055720;28;20178;-77
2021/01/20 04:30:34;;;;;;;1.37;1.27;;;;;;;;;;5055718;28;20408;-77
2021/01/20 04:33:00;;;;;;;1.30;1.20;;;;;;;;;;5055648;28;20476;-75
2021/01/20 04:35:26;;;;;;;1.33;0.97;;;;;;;;;;5055604;28;20846;-77
2021/01/20 04:37:51;;;;;;;1.37;1.10;;;;;;;;;;5038146;28;20522;-77
2021/01/20 04:40:17;;;;;;;1.37;1.17;;;;;;;;;;5055402;28;20746;-76
2021/01/20 04:42:45;;;;;;;1.30;0.90;;;;;;;;;;5055591;28;20420;-77
2021/01/20 04:45:11;;;;;;;1.48;1.05;;;;;;;;;;5055871;28;20430;-76
2021/01/20 04:47:37;;;;;;;0.95;0.85;;;;;;;;;;5055548;28;20163;-76
2021/01/20 04:50:04;;;;;;;0.98;0.98;;;;;;;;;;5055526;28;20538;-77
2021/01/20 04:55:34;;;;;;;1.85;1.23;;;;;;;;;;5055510;28;20652;-78
2021/01/20 04:58:02;;;;;;;2.03;1.65;;;;;;;;;;5055276;28;20174;-77
2021/01/20 05:00:28;;;;;;;1.70;1.25;;;;;;;;;;5055349;28;20178;-75
2021/01/20 05:02:55;;;;;;;1.10;1.00;;;;;;;;;;5055013;28;20684;-76
2021/01/20 05:05:21;;;;;;;1.92;0.90;;;;;;;;;;5055147;28;20187;-78
2021/01/20 05:10:51;;;;;;;1.48;1.38;;;;;;;;;;5055343;28;20206;-76
2021/01/20 05:13:27;;;;;;;1.67;1.05;;;;;;;;;;5055131;28;20203;-76
2021/01/20 05:15:53;;;;;;;1.67;1.20;;;;;;;;;;5055390;28;20271;-77
2021/01/20 05:18:19;;;;;;;1.55;1.45;;;;;;;;;;5055164;28;20168;-78
2021/01/20 05:20:45;;;;;;;3.75;1.20;;;;;;;;;;5055017;28;20522;-77
2021/01/20 05:23:11;;;;;;;1.85;1.55;;;;;;;;;;5055033;28;20248;-78
2021/01/20 05:25:38;;;;;;;1.58;1.48;;;;;;;;;;5036484;28;20610;-76
2021/01/20 05:28:23;;;;;;;1.77;1.40;;;;;;;;;;5053989;28;20170;-75
2021/01/20 05:30:59;;;;;;;2.20;1.52;;;;;;;;;;5054927;28;20168;-75
2021/01/20 05:33:25;;;;;;;1.38;1.27;;;;;;;;;;5054643;28;20671;-76
2021/01/20 05:36:21;;;;;;;3.13;1.50;;;;;;;;;;5054833;28;20561;-76
2021/01/20 05:38:48;;;;;;;1.67;1.20;;;;;;;;;;5033705;28;20246;-77
2021/01/20 05:41:17;;;;;;;2.45;1.63;;;;;;;;;;5054693;28;20548;-77
2021/01/20 05:43:43;;;;;;;2.15;1.40;;;;;;;;;;5054372;28;20309;-76
2021/01/20 05:46:10;;;;;;;1.98;1.45;;;;;;;;;;5054239;28;20579;-77
2021/01/20 05:48:48;;;;;;;1.65;1.55;;;;;;;;;;5054518;28;20212;-77
2021/01/20 05:51:14;;;;;;;1.48;1.05;;;;;;;;;;5054134;28;20170;-77
2021/01/20 05:53:48;;;;;;;1.25;1.15;;;;;;;;;;5053921;28;20205;-77
2021/01/20 05:56:15;;;;;;;1.17;1.08;;;;;;;;;;5054242;28;20537;-77
2021/01/20 05:58:41;;;;;;;1.08;1.05;;;;;;;;;;5036135;28;20207;-76
2021/01/20 06:01:08;;;;;;;3.10;1.48;;;;;;;;;;5054137;28;20630;-77
2021/01/20 06:03:35;;;;;;;1.80;1.70;;;;;;;;;;5053988;28;20637;-76
2021/01/20 06:06:02;;;;;;;2.10;1.90;;;;;;;;;;5054073;28;20199;-77
2021/01/20 06:08:31;;;;;;;1.60;1.50;;;;;;;;;;5053919;28;20179;-78
2021/01/20 06:11:02;;;;;;;1.60;1.30;;;;;;;;;;5053856;28;20260;-78
2021/01/20 06:13:28;;;;;;;1.75;1.40;;;;;;;;;;5053745;28;20229;-77
2021/01/20 06:15:56;;;;;;;3.80;2.00;;;;;;;;;;5054175;28;20606;-77
2021/01/20 06:18:30;;;;;;;1.45;1.30;;;;;;;;;;5053626;28;20174;-78
2021/01/20 06:27:06;;;;;;;1.10;1.00;;;;;;;;;;5053768;28;20179;-77
2021/01/20 06:29:34;;;;;;;4.53;1.65;;;;;;;;;;5053347;28;20281;-77
2021/01/20 06:32:01;;;;;;;1.52;1.35;;;;;;;;;;5053476;28;20226;-77
2021/01/20 06:34:27;;;;;;;1.58;1.40;;;;;;;;;;5053187;28;20238;-77
2021/01/20 06:36:53;;;;;;;1.38;1.25;;;;;;;;;;5053425;28;20175;-76
2021/01/20 06:39:29;;;;;;;1.58;1.45;;;;;;;;;;5053104;28;20203;-79
2021/01/20 06:41:55;;;;;;;2.60;1.23;;;;;;;;;;5053299;28;20240;-78
2021/01/20 06:44:21;;;;;;;1.30;1.20;;;;;;;;;;5053168;28;20200;-78
2021/01/20 06:46:56;;;;;;;2.03;1.02;;;;;;;;;;5053146;28;20175;-77
2021/01/20 06:49:26;;;;;;;1.30;1.10;;;;;;;;;;5052804;28;20175;-77
2021/01/20 06:52:25;;;;;;;1.35;1.25;;;;;;;;;;5052882;28;20230;-77
2021/01/20 06:54:51;;;;;;;1.88;1.05;;;;;;;;;;4998810;28;20210;-77
2021/01/20 06:57:25;;;;;;;1.20;1.10;;;;;;;;;;5053167;28;20170;-76
2021/01/20 07:00:09;;;;;;;1.08;1.08;;;;;;;;;;5053143;28;20762;-77
2021/01/20 07:02:36;;;;;;;1.38;1.13;;;;;;;;;;5052289;28;20175;-75
2021/01/20 07:05:03;;;;;;;1.25;1.15;;;;;;;;;;5052823;28;20175;-76
2021/01/20 07:07:48;;;;;;;2.17;1.55;;;;;;;;;;5052768;28;20196;-77
2021/01/20 07:10:13;;;;;;;1.85;1.75;;;;;;;;;;5052538;28;20171;-76
2021/01/20 07:12:59;;;;;;;1.40;1.30;;;;;;;;;;5052815;28;20391;-77
2021/01/20 07:15:25;;;;;;;2.25;2.05;;;;;;;;;;5052652;28;20425;-77
2021/01/20 07:17:51;;;;;;;2.92;1.80;;;;;;;;;;5052746;28;20172;-78
2021/01/20 07:20:17;;;;;;;3.30;2.37;;;;;;;;;;5052665;28;20238;-78
2021/01/20 07:22:43;;;;;;;17.23;9.77;;;;;;;;;;5051346;28;20413;-77
2021/01/20 07:25:10;;;;;;;13.75;8.75;;;;;;;;;;5051696;28;20412;-76
2021/01/20 07:27:47;;;;;;;15.52;8.13;;;;;;;;;;5051837;28;20297;-77
2021/01/20 07:30:14;;;;;;;4.88;2.97;;;;;;;;;;5051803;28;20636;-77
2021/01/20 07:32:40;;;;;;;2.60;2.13;;;;;;;;;;5051791;28;20284;-77
2021/01/20 07:35:16;;;;;;;3.37;2.37;;;;;;;;;;5051838;28;20203;-77
2021/01/20 07:37:42;;;;;;;4.28;2.05;;;;;;;;;;5051945;28;20825;-78
2021/01/20 07:40:08;;;;;;;3.40;2.00;;;;;;;;;;5051623;28;20621;-77
2021/01/20 07:42:41;;;;;;;2.50;1.45;;;;;;;;;;5051518;28;20173;-77
2021/01/20 07:45:07;;;;;;;1.92;1.75;;;;;;;;;;5051665;28;20185;-77
2021/01/20 07:47:54;;;;;;;3.47;1.95;;;;;;;;;;5051666;28;20209;-78
2021/01/20 07:50:20;;;;;;;7.88;2.25;;;;;;;;;;5053135;28;20621;-77
2021/01/20 07:52:46;;;;;;;2.30;2.10;;;;;;;;;;5054698;28;20672;-77
2021/01/20 07:55:16;;;;;;;3.47;2.20;;;;;;;;;;5054197;28;20262;-75
2021/01/20 07:57:42;;;;;;;2.90;2.25;;;;;;;;;;5053353;28;20482;-76
2021/01/20 08:00:09;;;;;;;4.60;3.13;;;;;;;;;;5053881;28;20257;-77
2021/01/20 08:02:45;;;;;;;3.78;2.78;;;;;;;;;;5054345;28;20407;-76
2021/01/20 08:05:11;;;;;;;4.85;2.95;;;;;;;;;;5053876;28;20610;-77
2021/01/20 08:07:37;;;;;;;3.60;2.25;;;;;;;;;;5054287;28;20238;-76
2021/01/20 08:10:04;;;;;;;2.03;1.93;;;;;;;;;;5054075;28;20570;-76
2021/01/20 08:12:30;;;;;;;2.22;1.80;;;;;;;;;;5053867;28;21027;-75
2021/01/20 08:14:57;;;;;;;2.00;1.80;;;;;;;;;;5054110;28;20306;-74
2021/01/20 08:17:23;;;;;;;1.70;1.60;;;;;;;;;;5054032;28;20215;-77
2021/01/20 08:19:50;;;;;;;2.42;1.77;;;;;;;;;;5054109;28;20176;-76
2021/01/20 08:22:16;;;;;;;3.08;1.92;;;;;;;;;;5054120;28;20189;-75
2021/01/20 08:24:46;;;;;;;4.15;1.80;;;;;;;;;;5054112;28;20324;-76
2021/01/20 08:27:12;;;;;;;2.95;2.05;;;;;;;;;;5053677;28;20176;-79
2021/01/20 08:29:51;;;;;;;2.97;1.63;;;;;;;;;;5053915;28;20175;-76
2021/01/20 08:32:17;;;;;;;1.88;1.60;;;;;;;;;;5053882;28;20177;-76
2021/01/20 08:34:44;;;;;;;3.45;2.20;;;;;;;;;;5053776;28;20530;-75
2021/01/20 08:37:11;;;;;;;2.08;1.70;;;;;;;;;;5035894;28;20628;-77
2021/01/20 08:39:39;;;;;;;3.17;2.30;;;;;;;;;;5053762;28;20665;-77
2021/01/20 08:42:25;;;;;;;4.75;2.58;;;;;;;;;;5050941;28;20157;-77
2021/01/20 08:45:08;;;;;;;2.35;2.15;;;;;;;;;;5052529;28;20171;-76
2021/01/20 08:47:44;;;;;;;2.60;2.40;;;;;;;;;;5052699;28;20277;-76
2021/01/20 08:50:10;;;;;;;2.70;2.00;;;;;;;;;;5052621;28;20171;-75
2021/01/20 08:52:51;;;;;;;1.85;1.73;;;;;;;;;;5052587;28;20202;-76
2021/01/20 08:55:26;;;;;;;4.03;2.70;;;;;;;;;;5053063;28;20183;-76
2021/01/20 08:58:11;;;;;;;2.70;2.45;;;;;;;;;;5035130;28;20698;-76
2021/01/20 09:00:40;;;;;;;2.65;2.00;;;;;;;;;;5053047;28;20178;-76
2021/01/20 09:03:13;;;;;;;3.22;2.50;;;;;;;;;;5052557;28;20229;-79
2021/01/20 09:05:39;;;;;;;3.90;2.30;;;;;;;;;;5052660;28;20168;-79
2021/01/20 09:08:05;;;;;;;2.27;2.07;;;;;;;;;;5052971;28;20189;-78
2021/01/20 09:10:31;;;;;;;2.47;2.00;;;;;;;;;;5052454;28;20453;-78
2021/01/20 09:12:57;;;;;;;2.83;2.50;;;;;;;;;;5052831;28;20266;-79
2021/01/20 09:15:23;;;;;;;3.87;2.47;;;;;;;;;;5052763;28;20426;-79
2021/01/20 09:17:49;;;;;;;8.10;2.80;;;;;;;;;;5052620;28;20888;-77
2021/01/20 09:20:15;;;;;;;5.90;1.90;;;;;;;;;;5052425;28;20425;-76
2021/01/20 09:22:41;;;;;;;3.47;2.47;;;;;;;;;;5052679;28;20429;-77
2021/01/20 09:25:07;;;;;;;2.50;2.00;;;;;;;;;;5052405;28;20251;-77
2021/01/20 09:27:33;;;;;;;2.17;1.98;;;;;;;;;;5052638;28;20193;-77
2021/01/20 09:29:59;;;;;;;3.10;2.30;;;;;;;;;;5052240;28;20176;-75
2021/01/20 09:32:25;;;;;;;4.87;3.13;;;;;;;;;;5052714;28;20417;-77
2021/01/20 09:34:51;;;;;;;2.97;2.63;;;;;;;;;;5052729;28;20476;-75
2021/01/20 09:37:17;;;;;;;5.73;2.60;;;;;;;;;;5052223;28;20912;-75
2021/01/20 09:42:47;;;;;;;3.40;2.65;;;;;;;;;;5052270;28;20429;-76
2021/01/20 09:45:14;;;;;;;3.70;2.25;;;;;;;;;;5052149;28;20171;-77
2021/01/20 09:47:43;;;;;;;2.20;2.00;;;;;;;;;;5052052;28;20203;-78
2021/01/20 09:50:09;;;;;;;3.10;2.45;;;;;;;;;;5052164;28;20159;-78
2021/01/20 09:58:24;;;;;;;2.38;1.80;;;;;;;;;;5051703;28;20522;-77
2021/01/20 10:00:50;;;;;;;1.87;1.77;;;;;;;;;;5051609;28;20204;-76
2021/01/20 10:03:16;;;;;;;2.90;1.97;;;;;;;;;;5051600;28;20798;-76
2021/01/20 10:05:42;;;;;;;2.90;2.60;;;;;;;;;;5052540;28;20426;-78
2021/01/20 10:08:08;;;;;;;2.30;2.10;;;;;;;;;;5052957;28;20805;-77
2021/01/20 10:10:34;;;;;;;3.27;2.70;;;;;;;;;;5052476;28;20176;-77
2021/01/20 10:13:00;;;;;;;7.70;2.30;;;;;;;;;;5051779;28;20503;-78
2021/01/20 10:15:26;;;;;;;2.83;2.00;;;;;;;;;;5052743;28;20496;-77
2021/01/20 10:17:52;;;;;;;3.17;2.57;;;;;;;;;;5052738;28;20547;-76
2021/01/20 10:20:19;;;;;;;2.55;2.20;;;;;;;;;;5052459;28;20768;-77
2021/01/20 10:22:45;;;;;;;2.38;2.00;;;;;;;;;;5052436;28;20588;-77
2021/01/20 10:28:14;;;;;;;2.28;2.00;;;;;;;;;;5052216;28;20416;-76
2021/01/20 10:30:40;;;;;;;3.25;2.10;;;;;;;;;;5052414;28;20172;-75
2021/01/20 10:33:06;;;;;;;2.60;1.93;;;;;;;;;;5052067;28;20252;-75
2021/01/20 10:35:32;;;;;;;2.50;1.70;;;;;;;;;;5052171;28;20458;-76
2021/01/20 10:37:58;;;;;;;1.70;1.60;;;;;;;;;;5052148;28;20445;-77
2021/01/20 10:43:28;;;;;;;4.50;2.78;;;;;;;;;;5051987;28;20437;-76
2021/01/20 10:45:54;;;;;;;4.00;3.60;;;;;;;;;;5051964;28;20608;-75
2021/01/20 10:48:20;;;;;;;7.00;4.00;;;;;;;;;;5051805;28;20427;-77
2021/01/20 10:50:46;;;;;;;4.60;3.40;;;;;;;;;;5051765;28;20422;-76
2021/01/20 10:53:12;;;;;;;5.13;4.03;;;;;;;;;;5051384;28;20492;-77
2021/01/20 10:58:41;;;;;;;3.40;2.90;;;;;;;;;;5050770;28;20226;-75
2021/01/20 11:01:07;;;;;;;3.13;2.60;;;;;;;;;;5051657;28;20885;-76
2021/01/20 11:03:33;;;;;;;3.30;2.40;;;;;;;;;;5051717;28;20501;-76
2021/01/20 11:05:59;;;;;;;4.03;2.50;;;;;;;;;;5051674;28;20839;-76
2021/01/20 11:08:26;;;;;;;3.30;2.13;;;;;;;;;;5051438;28;20820;-76
2021/01/20 11:10:52;;;;;;;2.90;2.47;;;;;;;;;;5051518;28;20772;-76
2021/01/20 11:13:18;;;;;;;3.90;2.83;;;;;;;;;;5051436;28;20470;-77
2021/01/20 11:15:45;;;;;;;2.43;2.23;;;;;;;;;;5050996;28;20411;-76
2021/01/20 11:18:12;;;;;;;2.23;2.03;;;;;;;;;;5051195;28;20423;-78
2021/01/20 11:20:38;;;;;;;5.07;2.97;;;;;;;;;;5051746;28;20791;-75
2021/01/20 11:23:03;;;;;;;4.17;2.60;;;;;;;;;;5051296;28;20403;-76
2021/01/20 11:28:34;;;;;;;7.17;2.60;;;;;;;;;;5055451;28;20761;-76
2021/01/20 11:31:00;;;;;;;5.80;2.83;;;;;;;;;;5056046;28;20449;-78
2021/01/20 11:33:26;;;;;;;4.70;2.47;;;;;;;;;;5056430;28;20554;-79
2021/01/20 11:35:52;;;;;;;4.93;3.27;;;;;;;;;;5056535;28;20505;-76
2021/01/20 11:38:18;;;;;;;7.40;3.47;;;;;;;;;;5056567;28;20556;-77
2021/01/20 11:43:48;;;;;;;5.20;3.50;;;;;;;;;;5056089;28;20476;-78
2021/01/20 11:46:14;;;;;;;6.40;3.27;;;;;;;;;;5056198;28;20411;-77
2021/01/20 11:48:40;;;;;;;4.10;3.50;;;;;;;;;;5056200;28;20497;-77
2021/01/20 11:51:06;;;;;;;5.23;3.57;;;;;;;;;;5056655;28;20410;-77
2021/01/20 11:53:32;;;;;;;4.53;3.07;;;;;;;;;;5056108;28;20963;-77
2021/01/20 11:59:02;;;;;;;7.03;3.30;;;;;;;;;;5055987;28;20469;-78
2021/01/20 12:01:35;;;;;;;4.80;3.23;;;;;;;;;;5056273;28;20450;-77
2021/01/20 12:04:03;;;;;;;3.67;2.90;;;;;;;;;;5055483;28;20493;-78
2021/01/20 12:06:29;;;;;;;9.80;3.77;;;;;;;;;;5055843;28;20502;-77
2021/01/20 12:08:55;;;;;;;4.80;2.50;;;;;;;;;;5055869;28;20883;-76
2021/01/20 12:14:24;;;;;;;4.67;2.50;;;;;;;;;;5055592;28;20626;-78
2021/01/20 12:16:50;;;;;;;4.03;2.80;;;;;;;;;;5055692;28;20438;-78
2021/01/20 12:19:16;;;;;;;2.93;2.63;;;;;;;;;;5055630;28;20426;-77
2021/01/20 12:21:42;;;;;;;2.83;2.23;;;;;;;;;;5055679;28;20927;-77
2021/01/20 12:24:08;;;;;;;2.70;2.17;;;;;;;;;;5055451;28;20458;-77
2021/01/20 12:26:34;;;;;;;4.43;2.50;;;;;;;;;;5055504;28;20422;-79
2021/01/20 12:29:00;;;;;;;4.37;2.33;;;;;;;;;;5055371;28;20480;-78
2021/01/20 12:31:26;;;;;;;4.27;2.40;;;;;;;;;;5055421;28;20509;-78
2021/01/20 12:33:52;;;;;;;4.23;2.20;;;;;;;;;;5055225;28;20652;-78
2021/01/20 12:36:20;;;;;;;3.63;2.30;;;;;;;;;;5054672;28;20468;-79
2021/01/20 12:38:46;;;;;;;8.00;4.40;;;;;;;;;;5055179;28;20475;-77
2021/01/20 12:44:16;;;;;;;4.23;3.80;;;;;;;;;;5055052;28;20425;-78
2021/01/20 12:46:42;;;;;;;4.90;3.30;;;;;;;;;;5055270;28;20829;-78
2021/01/20 12:49:08;;;;;;;4.63;2.53;;;;;;;;;;5055126;28;20427;-81
2021/01/20 12:51:34;;;;;;;3.10;2.80;;;;;;;;;;5054865;28;20502;-79
2021/01/20 12:54:01;;;;;;;4.13;3.17;;;;;;;;;;5054826;28;20497;-75
2021/01/20 12:56:28;;;;;;;3.53;3.23;;;;;;;;;;5054745;28;20559;-76
2021/01/20 12:58:54;;;;;;;3.90;3.30;;;;;;;;;;5054809;28;20415;-77
2021/01/20 13:01:20;;;;;;;5.60;2.63;;;;;;;;;;5055057;28;20478;-76
2021/01/20 13:03:46;;;;;;;3.13;2.83;;;;;;;;;;5054754;28;20666;-76
2021/01/20 13:06:12;;;;;;;6.43;2.97;;;;;;;;;;5054715;28;20473;-78
2021/01/20 13:08:38;;;;;;;4.00;2.80;;;;;;;;;;5054869;28;20422;-79
2021/01/20 13:14:08;;;;;;;4.07;3.60;;;;;;;;;;5052497;28;20477;-77
2021/01/20 13:16:34;;;;;;;3.60;2.87;;;;;;;;;;5053341;28;20415;-76
2021/01/20 13:19:00;;;;;;;15.53;3.10;;;;;;;;;;5053081;28;20509;-75
2021/01/20 13:21:26;;;;;;;5.87;3.23;;;;;;;;;;5053348;28;20502;-75
2021/01/20 13:23:52;;;;;;;3.50;3.20;;;;;;;;;;5053377;28;20878;-77
2021/01/20 13:29:21;;;;;;;4.60;2.87;;;;;;;;;;5053431;28;20418;-78
2021/01/20 13:31:49;;;;;;;5.17;2.97;;;;;;;;;;5053492;28;20779;-75
2021/01/20 13:34:15;;;;;;;2.73;2.53;;;;;;;;;;5053276;28;21096;-76
2021/01/20 13:36:41;;;;;;;3.70;2.33;;;;;;;;;;5035113;28;20443;-76
2021/01/20 13:39:07;;;;;;;5.57;3.17;;;;;;;;;;5053152;28;20552;-78
2021/01/20 13:44:38;;;;;;;2.30;2.03;;;;;;;;;;5053048;28;20448;-77
2021/01/20 13:47:05;;;;;;;6.40;2.70;;;;;;;;;;5052303;28;20419;-76
2021/01/20 13:49:32;;;;;;;2.87;2.60;;;;;;;;;;5052853;28;20415;-77
2021/01/20 13:51:58;;;;;;;4.37;3.43;;;;;;;;;;5052754;28;20473;-75
2021/01/20 13:54:24;;;;;;;4.27;3.40;;;;;;;;;;5052672;28;20853;-77
2021/01/20 13:59:53;;;;;;;3.70;2.53;;;;;;;;;;5052456;28;20473;-76
2021/01/20 14:02:19;;;;;;;4.90;2.83;;;;;;;;;;5052293;28;20408;-77
2021/01/20 14:04:45;;;;;;;4.50;2.60;;;;;;;;;;5052641;28;20411;-76
2021/01/20 14:07:14;;;;;;;4.53;2.83;;;;;;;;;;5052507;28;20762;-75
2021/01/20 14:09:40;;;;;;;2.50;2.30;;;;;;;;;;5052511;28;20455;-76
2021/01/20 14:15:09;;;;;;;5.23;2.90;;;;;;;;;;5052153;28;20461;-77
2021/01/20 14:17:35;;;;;;;5.57;2.60;;;;;;;;;;5052529;28;20418;-75
2021/01/20 14:20:05;;;;;;;4.63;2.77;;;;;;;;;;5052470;28;20976;-76
2021/01/20 14:22:31;;;;;;;3.03;2.27;;;;;;;;;;5052238;28;20407;-76
2021/01/20 14:24:58;;;;;;;1.93;1.83;;;;;;;;;;5052071;28;20789;-76
2021/01/20 14:30:28;;;;;;;3.30;3.00;;;;;;;;;;5051835;28;20436;-76
2021/01/20 14:32:54;;;;;;;7.00;3.33;;;;;;;;;;5052138;28;20463;-75
2021/01/20 14:35:22;;;;;;;3.33;2.40;;;;;;;;;;5052061;28;20419;-76
2021/01/20 14:37:48;;;;;;;3.70;2.93;;;;;;;;;;5052342;28;20851;-75
2021/01/20 14:40:14;;;;;;;7.33;3.03;;;;;;;;;;5051685;28;20442;-76
2021/01/20 14:42:40;;;;;;;3.57;3.27;;;;;;;;;;5051635;28;20411;-76
2021/01/20 14:45:06;;;;;;;5.27;2.43;;;;;;;;;;5051865;28;20916;-80
2021/01/20 14:47:32;;;;;;;2.93;2.40;;;;;;;;;;5051801;28;20418;-81
2021/01/20 14:49:59;;;;;;;2.67;2.47;;;;;;;;;;5051694;28;20761;-77
2021/01/20 14:52:25;;;;;;;3.53;2.63;;;;;;;;;;5051913;28;20758;-76
2021/01/20 14:54:51;;;;;;;4.27;2.43;;;;;;;;;;5051935;28;20486;-77
2021/01/20 15:00:21;;;;;;;3.23;2.33;;;;;;;;;;5051700;28;20425;-75
2021/01/20 15:02:47;;;;;;;4.90;2.40;;;;;;;;;;5051655;28;20463;-77
2021/01/20 15:05:13;;;;;;;2.70;2.50;;;;;;;;;;5051489;28;20498;-77
2021/01/20 15:07:39;;;;;;;5.20;2.27;;;;;;;;;;5051718;28;20415;-76
2021/01/20 15:10:06;;;;;;;5.40;2.20;;;;;;;;;;5051571;28;20769;-77
2021/01/20 15:15:35;;;;;;;2.80;2.00;;;;;;;;;;5051709;28;20638;-77
2021/01/20 15:18:01;;;;;;;5.00;2.27;;;;;;;;;;5051530;28;20430;-77
2021/01/20 15:20:27;;;;;;;6.27;3.17;;;;;;;;;;5051339;28;20403;-77
2021/01/20 15:22:53;;;;;;;7.07;3.27;;;;;;;;;;5050450;28;20426;-77
2021/01/20 15:25:19;;;;;;;5.73;3.50;;;;;;;;;;5051245;28;20406;-77
2021/01/20 15:30:51;;;;;;;4.23;3.70;;;;;;;;;;5051524;28;20406;-77
2021/01/20 15:33:18;;;;;;;4.33;3.93;;;;;;;;;;5050853;28;21013;-77
2021/01/20 15:35:46;;;;;;;6.03;4.47;;;;;;;;;;5051623;28;20511;-74
2021/01/20 15:38:12;;;;;;;4.13;3.23;;;;;;;;;;5051195;28;20406;-74
2021/01/20 15:40:38;;;;;;;3.40;2.90;;;;;;;;;;5051141;28;20897;-74
2021/01/20 15:46:07;;;;;;;4.17;2.57;;;;;;;;;;5051253;28;20975;-75
2021/01/20 15:48:33;;;;;;;4.30;3.40;;;;;;;;;;5051067;28;20490;-77
2021/01/20 15:51:00;;;;;;;5.00;3.47;;;;;;;;;;5051064;28;20415;-76
2021/01/20 15:53:26;;;;;;;6.80;4.57;;;;;;;;;;5051201;28;20473;-76
2021/01/20 15:55:52;;;;;;;11.10;2.90;;;;;;;;;;5050997;28;20423;-76
2021/01/20 16:01:22;;;;;;;6.30;3.40;;;;;;;;;;5050863;28;20410;-75
2021/01/20 16:03:48;;;;;;;4.13;3.50;;;;;;;;;;5050765;28;20450;-75
2021/01/20 16:06:17;;;;;;;4.63;3.30;;;;;;;;;;5051012;28;20410;-75
2021/01/20 16:08:43;;;;;;;5.07;2.78;;;;;;;;;;5051028;28;20761;-75
2021/01/20 16:11:09;;;;;;;2.87;2.30;;;;;;;;;;5052504;28;20172;-75
2021/01/20 16:13:35;;;;;;;4.40;3.43;;;;;;;;;;5054435;28;21052;-75
2021/01/20 16:16:01;;;;;;;4.93;3.60;;;;;;;;;;5054665;28;20411;-74
2021/01/20 16:18:27;;;;;;;8.73;4.30;;;;;;;;;;5054755;28;20415;-76
2021/01/20 16:20:53;;;;;;;6.67;4.53;;;;;;;;;;5054469;28;20921;-75
2021/01/20 16:23:19;;;;;;;7.33;4.10;;;;;;;;;;5054637;28;20423;-76
2021/01/20 16:25:45;;;;;;;5.67;4.10;;;;;;;;;;5054341;28;20780;-76
2021/01/20 16:31:14;;;;;;;3.67;3.00;;;;;;;;;;5054380;28;20425;-75
2021/01/20 16:33:40;;;;;;;3.85;3.50;;;;;;;;;;5054886;28;20471;-74
2021/01/20 16:36:06;;;;;;;7.83;4.83;;;;;;;;;;5055160;28;20183;-74
2021/01/20 16:38:32;;;;;;;5.57;4.13;;;;;;;;;;5055157;28;20900;-74
2021/01/20 16:40:58;;;;;;;4.13;3.73;;;;;;;;;;5055093;28;20868;-74
2021/01/20 16:46:28;;;;;;;3.78;3.38;;;;;;;;;;5055082;28;20462;-74